首页
METAR-TAF:

METAR-TAF

机场 :

卡斯特爾, 法国

纬度: 43-33-25N, 经度: 2-17-21E, 海拔: 239米

当前天气观测

该预报发布于34分钟前的08:00 UTC
风速9节,风向北转西北
温度 5°C
湿度 93%
气压 1010 hPa
能见度10公里或以上
多云层高于800英尺
阴天层高于1800英尺
小雨

METAR: LFCK 170800Z AUTO 33009KT 9999 -RA BKN008 OVC018 05/04 Q1010 NOSIG

时间: 09:34 (08:34 UTC)

预报

该预报发布于3小时和34分钟前的05:00 UTC
预报有效从17日的 06点(UTC)到 17日的 15点(UTC)
风速10节,风向西转西北
能见度10公里或以上
多云层高于1200英尺
几率 40% :
短暂存在
从 17日的 06点(UTC)到 17日的 10点(UTC)
多云层高于700英尺
几率 30% :
短暂存在
从 17日的 06点(UTC)到 17日的 07点(UTC)
能見度: 4000
小雨

TAF: LFCK 170500Z 1706/1715 29010KT 9999 BKN012 PROB40 TEMPO 1706/1710 BKN007 PROB30 TEMPO 1706/1707 4000 -RA

超过4000个机场的气象观测和天气预报(METAR&TAF报告)。

可查询的气象台以黄色和红色小点在地图上表示。

将鼠标移到小点上方,可查看气象台名称。

然后点击查看天气观测和预报。

如需切换地图:点击带黑十字的绿色按钮放大地图;点击带横线的绿色按钮缩小地图;或者点击绿色箭头查看邻近地区的地图。


METAR-TAF: